Create Custom Reports and Graphics: Custom Report

Stanford Met Tower

Current Conditions

9/27/21 2:45 AM (-07:00)
Updated Every 15 Minutes
Temp 54.1 °F   4.9
RH 86 %   6
Dew Pt 50.2 °F   2.7
Wind Dir SSW | 194 °
Wind Spd 5.6 mph   2.8
Wind Gust 7.9 mph   3.6
NowCast AQI Value 17 AQI   2
NowCast AQI Status Good
Daily Min Temp 52.7 °F   6.0
Daily Max Temp 54.7 °F   5.5
Daily Max Wind 7.9 mph   1.2
Yesterday’s Min Temp 52.5 °F
Yesterday's Max Temp 71.3 °F
Yesterday's Max Wind 14.3 mph
Seasonal Rainfall 0.02 In

Last 48 Hours

Stanford Met Tower

Hourly Data | America/Los_Angeles
as of 9/27/21 3:14 AM PDT
Date & Time Temp (°F) RH (%) Dew Pt (°F) Wind Dir (°) Wind Spd (mph) Wind Gust (mph) Solar Rad (W/m2) Pressure (mb) (mb) NowCast AQI Value (AQI) NowCast AQI Status Latest Rain (In) Daily Rain (In) Daily Min Temp (°F) Daily Max Temp (°F)
9/27/21 - 0200 53.2 90 50.3 WSW | 249 2.4 4.6 0 1,020.9 17 Good 0.00 0.00 52.7 54.3
9/27/21 - 0100 54.6 88 51.0 SW | 236 2.3 4.6 0 1,020.8 18 Good 0.00 0.00 52.5 71.3
9/27/21 - 0000 53.8 91 51.4 SW | 221 2.2 3.7 0 1,020.7 18 Good 0.00 0.00 52.5 71.3
9/26/21 - 2300 53.8 91 51.2 WSW | 256 2.4 3.7 0 1,020.5 19 Good 0.00 0.00 52.6 71.3
9/26/21 - 2200 55.9 87 52.2 NW | 320 0.9 3.2 0 1,019.9 20 Good 0.00 0.00 54.7 71.3
9/26/21 - 2100 58.0 83 52.8 SW | 226 3.4 6.6 0 1,019.4 20 Good 0.00 0.00 57.2 71.3
9/26/21 - 2000 59.8 77 52.6 NNE | 26 1.2 5.6 0 1,018.8 19 Good 0.00 0.00 58.0 71.3
9/26/21 - 1900 63.9 70 53.8 NNE | 32 4.9 9.8 57 1,018.2 19 Good 0.00 0.00 58.6 71.3
9/26/21 - 1800 67.0 64 54.6 NNE | 30 6.4 13.0 222 1,017.7 17 Good 0.00 0.00 58.6 71.3
9/26/21 - 1700 69.1 61 55.2 NNE | 29 7.4 13.0 398 1,017.6 18 Good 0.00 0.00 58.6 71.3
9/26/21 - 1600 70.2 61 56.2 NNE | 27 6.6 12.5 552 1,017.5 19 Good 0.00 0.00 58.6 71.3
9/26/21 - 1500 69.9 62 56.5 NNE | 28 6.7 13.2 668 1,017.4 20 Good 0.00 0.00 58.6 71.3
9/26/21 - 1400 68.9 64 56.5 NE | 44 7.6 14.3 717 1,017.9 21 Good 0.00 0.00 58.6 70.2
9/26/21 - 1300 67.6 66 56.0 NNE | 25 6.2 12.8 705 1,018.3 22 Good 0.00 0.00 58.6 69.2
9/26/21 - 1200 66.6 66 54.8 N | 355 4.2 9.0 652 1,018.8 23 Good 0.00 0.00 58.6 68.1
9/26/21 - 1100 64.7 69 54.2 NNE | 27 2.6 8.3 534 1,019.4 23 Good 0.00 0.00 58.6 66.5
9/26/21 - 1000 61.8 75 53.7 E | 84 1.7 5.0 281 1,019.5 24 Good 0.00 0.00 58.6 64.6
9/26/21 - 0900 59.8 79 53.4 NNW | 330 2.5 5.0 70 1,019.4 22 Good 0.00 0.00 58.6 60.9
9/26/21 - 0800 59.0 81 53.1 NNW | 327 2.3 5.3 19 1,019.2 19 Good 0.00 0.00 58.6 60.2
9/26/21 - 0700 58.8 81 53.1 NW | 321 2.6 6.9 0 1,019.1 19 Good 0.00 0.00 58.6 60.2
9/26/21 - 0600 58.7 81 53.0 NW | 325 3.6 8.2 0 1,018.7 19 Good 0.00 0.00 58.7 60.2
9/26/21 - 0500 59.0 81 53.2 NW | 325 3.3 8.1 0 1,018.5 19 Good 0.00 0.00 58.7 60.2
9/26/21 - 0400 59.2 80 53.0 NW | 320 1.8 3.7 0 1,018.6 18 Good 0.00 0.00 58.7 60.2
9/26/21 - 0300 58.9 80 52.9 WNW | 296 2.8 5.2 0 1,018.8 18 Good 0.00 0.00 58.7 60.2
9/26/21 - 0200 59.2 80 53.1 W | 279 3.6 6.7 0 1,018.7 19 Good 0.00 0.00 58.7 60.2
9/26/21 - 0100 59.6 80 53.6 SW | 223 2.9 7.1 0 1,018.7 23 Good 0.00 0.00 55.7 70.9
9/26/21 - 0000 59.6 83 54.6 SSW | 213 4.0 7.5 0 1,018.7 26 Good 0.00 0.00 55.7 70.9
9/25/21 - 2300 57.5 90 54.6 S | 191 3.2 6.8 0 1,018.4 29 Good 0.00 0.00 55.7 70.9
9/25/21 - 2200 57.0 90 54.1 SE | 140 1.5 4.4 0 1,018.0 29 Good 0.00 0.00 55.7 70.9
9/25/21 - 2100 58.8 86 54.5 ESE | 113 0.9 4.7 0 1,017.4 28 Good 0.00 0.00 55.7 70.9
9/25/21 - 2000 61.1 80 54.9 NE | 38 2.7 5.8 0 1,016.8 24 Good 0.00 0.00 55.7 70.9
9/25/21 - 1900 63.9 75 55.7 NE | 40 4.3 7.3 36 1,016.3 22 Good 0.00 0.00 55.7 70.9
9/25/21 - 1800 66.2 73 57.1 NE | 43 5.2 9.1 141 1,016.0 22 Good 0.00 0.00 55.7 70.9
9/25/21 - 1700 66.6 72 57.4 NNE | 23 6.0 12.9 300 1,015.8 24 Good 0.00 0.00 55.7 70.9
9/25/21 - 1600 67.6 72 58.3 NNE | 16 6.5 12.2 453 1,015.8 32 Good 0.00 0.00 55.7 70.9
9/25/21 - 1500 68.9 71 59.1 N | 9 6.2 12.2 588 1,015.8 38 Good 0.00 0.00 55.7 70.9
9/25/21 - 1400 69.6 70 59.5 NNE | 16 5.9 12.7 645 1,016.2 44 Good 0.00 0.00 55.7 70.9
9/25/21 - 1300 69.3 70 59.2 N | 353 5.0 10.2 642 1,016.8 50 Good 0.00 0.00 55.7 70.9
9/25/21 - 1200 67.6 73 58.8 N | 7 3.5 8.9 587 1,017.6 55 Moderate 0.00 0.00 55.7 68.7
9/25/21 - 1100 64.2 80 58.0 N | 356 2.6 6.8 433 1,018.3 58 Moderate 0.00 0.00 55.7 67.2
9/25/21 - 1000 62.0 85 57.6 W | 280 1.7 5.0 188 1,018.4 63 Moderate 0.00 0.00 55.7 63.2
9/25/21 - 0900 61.0 88 57.4 NW | 321 2.0 4.1 60 1,018.2 64 Moderate 0.00 0.00 55.7 61.6
9/25/21 - 0800 60.8 88 57.4 WNW | 297 2.0 4.7 14 1,017.9 64 Moderate 0.00 0.00 55.7 61.4
9/25/21 - 0700 60.9 88 57.5 WSW | 255 0.7 4.7 0 1,017.6 62 Moderate 0.00 0.00 55.7 61.4
9/25/21 - 0600 60.8 89 57.4 SE | 128 0.7 3.7 0 1,017.4 58 Moderate 0.00 0.00 55.7 61.3
9/25/21 - 0500 60.6 90 57.5 WSW | 251 1.0 4.9 0 1,017.4 54 Moderate 0.00 0.00 55.7 61.2
9/25/21 - 0400 60.1 90 57.3 NNE | 25 1.4 4.8 0 1,017.7 41 Good 0.00 0.00 55.7 60.9
9/25/21 - 0300 59.6 93 57.7 ENE | 58 2.9 5.6 0 1,018.0 37 Good 0.00 0.00 55.7 60.3
Max 70.2 93 59.5 - 7.6 14.3 717 1,020.9 64 - 0.00 0.00 58.7 71.3
Avg 62.0 79 55.1 - 3.4 7.5 187 1,018.2 30 - 0.00 - - -
Min 53.2 61 50.3 - 0.7 3.2 0 1,015.8 17 - 0.00 0.00 52.5 54.3
Total - - - - - - - - - - 0.00 - - -

Last 30 Days

Stanford Met Tower

Daily Data | America/Los_Angeles
as of 9/27/21 3:14 AM PDT
Date Daily Max Temp (°F) Time of Max Temp Daily Min Temp (°F) Time of Min Temp Daily Rain (In) Monthly Rain (In) Seasonal Rainfall (In) Daily Max Wind (mph) Time of Max Wind Max Wind Dir (°) Dew Pt (°F) Max RH (%) Min RH (%) Daily ETo (in) Daily Solar Rad (Cal/cm2) PM2.5 Daily Max (ug/m3) Time of Max PM2.5 Max Pressure (mb) (mb) Time of Max Press Min pressure (mb) (mb) Time of Min Press Max Temp Inversion (°F) Time of Max Temp Inversion Min Temp Inversion (°F) Time of Min Temp Inversion HDDs (°F) CDDs (°F) GDDs (DL) Seas GDDs (DL) Chilling <=45F (hrs) Bat Volt Min Day (V)
9/26/21 71.3 1442 52.5 2307 0.00 0.00 0.02 14.3 1352 NE | 53 53.6 93 59 0.116 419 6.5 0843 1,021.0 0044 1,017.0 1423 2.2 2256 -8.3 1247 4.4 1.0 11.6 2,329 0.0 11.9
9/25/21 70.9 1242 55.7 0101 0.00 0.00 0.02 12.9 1628 NE | 42 56.9 96 66 0.097 352 21.0 0658 1,019.0 2323 1,016.0 1442 2.1 2210 -7.8 1313 3.4 0.9 12.5 2,318 0.0 12.1
9/24/21 81.1 1348 51.2 0652 0.00 0.00 0.02 11.3 1538 NNW | 345 55.2 95 48 0.130 432 9.8 0528 1,018.0 0054 1,012.0 1428 4.6 0515 -8.8 1350 4.9 3.6 13.8 2,305 0.0 12.1
9/23/21 88.5 1517 50.1 0356 0.00 0.00 0.02 9.6 1737 N | 4 55.2 96 34 0.145 458 25.0 0758 1,018.0 0138 1,011.0 1548 5.3 2308 -9.0 1304 4.6 6.1 16.6 2,291 0.0 12.1
9/22/21 83.5 1518 53.8 0059 0.00 0.00 0.02 12.5 1350 NNE | 15 55.0 93 33 0.151 476 10.0 0543 1,023.0 0900 1,017.0 1634 3.9 0059 -8.6 1342 3.7 5.6 17.0 2,275 0.0 12.1
9/21/21 92.0 1618 52.2 0707 0.00 0.00 0.02 12.1 1417 N | 10 50.1 83 20 0.167 465 9.2 0013 1,022.0 0057 1,016.0 1436 5.4 2256 -7.8 1206 3.2 9.3 21.2 2,258 0.0 12.2
9/20/21 88.1 1631 49.2 0604 0.00 0.00 0.02 12.9 1505 NE | 51 46.6 94 19 0.165 499 5.3 0613 1,019.0 0109 1,013.0 1653 7.1 1924 -8.8 1334 4.6 7.8 18.1 2,237 0.0 12.1
9/19/21 75.6 1437 53.2 0059 0.00 0.00 0.02 18.8 1304 NNW | 334 55.4 88 46 0.143 475 4.2 1943 1,022.0 0817 1,018.0 1722 3.1 2108 -8.8 1332 2.2 2.8 15.6 2,218 0.0 12.1
9/18/21 76.1 1512 49.6 0429 0.00 0.00 0.02 19.5 1547 WSW | 248 54.7 94 53 0.107 353 12.5 0158 1,021.0 0945 1,018.0 1547 4.2 0358 -7.5 1207 3.8 1.9 13.1 2,203 0.0 12.1
9/17/21 75.9 1558 55.7 0100 0.00 0.00 0.02 22.1 1720 SSW | 195 53.1 84 47 0.140 471 16.7 1013 1,020.0 0027 1,014.0 0327 1.2 0100 -9.4 1224 4.0 1.6 12.6 2,190 0.0 12.1
9/16/21 71.4 1702 55.6 0751 0.00 0.00 0.02 15.5 1445 NNE | 13 53.4 88 57 0.135 497 12.3 0128 1,015.0 0031 1,011.0 1701 0.7 2101 -9.8 1328 3.8 1.2 12.4 2,177 0.0 11.8
9/15/21 72.7 1313 57.6 2234 0.00 0.00 0.02 14.4 1427 N | 0 56.6 94 58 0.135 476 23.5 0343 1,016.0 0940 1,012.0 1421 1.5 2128 -9.1 1248 3.2 1.7 13.6 2,165 0.0 12.1
9/14/21 80.6 1539 49.6 0644 0.00 0.00 0.02 12.1 1354 N | 0 55.1 95 50 0.153 517 19.3 1913 1,016.0 2305 1,011.0 1458 3.3 2225 -10.1 1416 5.5 3.8 13.4 2,151 0.0 12.1
9/13/21 81.4 1558 51.2 0612 0.00 0.00 0.02 12.4 1312 NNE | 24 55.5 95 44 0.157 524 18.8 2113 1,016.0 0134 1,011.0 1624 4.2 2325 -9.7 1245 5.2 4.3 14.1 2,138 0.0 12.1
9/12/21 84.7 1421 50.0 0650 0.00 0.00 0.02 11.4 1541 NNE | 22 56.1 95 40 0.159 511 15.5 0843 1,018.0 0751 1,013.0 1451 3.6 2330 -9.5 1321 5.1 5.6 15.5 2,124 0.0 12.1
9/11/21 80.1 1600 50.9 0546 0.00 0.00 0.02 13.4 1334 N | 352 56.0 96 48 0.156 525 10.2 0943 1,020.0 0820 1,015.0 1637 3.5 2244 -10.0 1310 4.9 4.2 14.3 2,108 0.0 12.1
9/10/21 76.9 1716 55.5 0059 0.00 0.00 0.02 18.3 1749 N | 351 57.5 94 45 0.147 508 6.3 0100 1,019.0 0005 1,014.0 0121 3.8 2250 -9.2 1207 2.7 3.0 15.3 2,094 0.0 12.1
9/9/21 77.8 1521 56.3 0407 0.00 0.00 0.02 11.4 1444 NNE | 25 58.2 94 55 0.134 442 12.7 0728 1,014.0 0059 1,011.0 1444 3.0 0204 -9.5 1458 2.3 3.6 16.3 2,078 0.0 12.1
9/8/21 90.1 1521 57.0 0635 0.00 0.00 0.02 12.0 1554 NNW | 346 58.3 90 35 0.165 511 20.5 0458 1,016.0 0739 1,010.0 1451 4.2 0203 -9.3 1252 2.2 6.8 19.5 2,062 0.0 12.1
9/7/21 86.6 1536 54.8 0503 0.00 0.00 0.02 10.8 1343 NE | 40 56.5 87 39 0.169 528 54.0 1558 1,017.0 0314 1,013.0 1625 5.7 0413 -9.6 1343 2.8 6.6 18.8 2,043 0.0 12.1
9/6/21 92.1 1602 49.6 0651 0.00 0.00 0.02 11.4 1547 N | 4 52.6 88 19 0.179 537 32.0 0100 1,018.0 0751 1,012.0 1624 5.6 2221 -8.9 1222 4.3 8.0 18.7 2,024 0.0 12.2
9/5/21 87.0 1503 48.6 0529 0.00 0.00 0.02 10.9 1550 N | 1 54.4 96 24 0.170 534 71.5 0743 1,018.0 0859 1,012.0 1502 4.4 2358 -9.7 1047 5.1 6.0 15.9 2,005 0.0 12.1
9/4/21 82.6 1635 52.6 0154 0.00 0.00 0.02 10.8 1409 NNE | 12 55.5 96 39 0.149 492 36.5 0943 1,018.0 0927 1,013.0 1700 3.6 2341 -9.5 1358 5.2 3.9 13.7 1,989 0.0 12.1
9/3/21 74.9 1515 53.5 0042 0.00 0.00 0.02 13.0 1339 NNW | 336 55.2 94 53 0.151 525 28.3 0528 1,018.0 0810 1,014.0 1452 2.3 2313 -9.6 1325 3.3 2.1 13.8 1,976 0.0 12.1
9/2/21 70.3 1721 53.1 0614 0.00 0.00 0.02 19.1 0130 SW | 218 52.4 94 56 0.137 498 28.2 1358 1,017.0 2310 1,014.0 1722 2.7 2159 -9.3 1338 4.8 1.0 11.3 1,962 0.0 12.1
9/1/21 77.4 1529 49.2 0527 0.00 0.00 0.02 22.1 1945 SSW | 197 51.4 94 41 0.172 573 14.8 0058 1,015.0 0059 1,010.0 0106 5.5 0411 -9.9 1502 5.5 2.7 12.2 1,950 0.0 12.1
8/31/21 80.5 1644 50.6 0651 0.00 0.00 0.02 19.2 1736 SSW | 195 53.8 95 36 0.173 576 22.5 0813 1,010.0 0852 1,006.0 1722 3.0 2215 -9.8 1255 4.8 3.7 13.8 1,938 0.0 12.1
8/30/21 79.1 1500 55.2 0051 0.00 0.00 0.02 11.4 1410 N | 5 58.7 96 51 0.165 550 31.8 0743 1,012.0 0124 1,006.0 1506 3.1 0121 -9.9 1246 2.9 4.2 16.3 1,924 0.0 12.1
8/29/21 85.4 1459 54.4 0632 0.00 0.00 0.02 10.5 1217 NE | 41 58.5 93 42 0.166 532 26.7 2258 1,013.0 0759 1,008.0 1514 3.3 0444 -9.8 1309 3.0 5.1 17.2 1,908 0.0 12.1
8/28/21 96.7 1536 54.8 0602 0.00 0.00 0.02 13.1 1442 NNE | 26 56.2 91 21 0.197 549 53.5 0213 1,011.0 2348 1,005.0 1524 4.6 0350 -8.2 1355 2.4 10.6 23.2 1,891 0.0 12.2
Max 96.7 - 57.6 - 0.00 0.00 - 22.1 - - 58.7 96 66 0.197 576 71.5 - 1,023.0 - 1,018.0 - 7.1 - -7.5 - 5.5 10.6 23.2 - 0.0 12.2
Avg - - - - - 0.00 - - - - 54.9 - - - - - - 1,017.3 - 1,012.4 - - - - - - - 15.4 - 0.0 -
Min 70.3 - 48.6 - 0.00 0.00 - 9.6 - - 46.6 83 19 0.097 352 4.2 - 1,010.0 - 1,005.0 - 0.7 - -10.1 - 2.2 0.9 11.3 - 0.0 11.8
Total - - - - - - - - - - - - - - - - - - - - - - - - - - - 461.4 - 0.0 -
Calm: 0.0%
Calm: 0.0%

Climate Summary

Stanford Met Tower

Current Year | Showing 1/1/21 - 9/26/21
as of 9/27/21 3:14 AM PDT
Temperature (°F) Precip (in) Days
Month Days Avg Max Avg Min Max Max Min Min Total Daily Min Temp < 32 Daily Min Temp < 40 Daily Max Temp > 90 Daily Max Temp > 100 Daily Rain > 0.01 Daily Rain > 0.1
Jan 2021 31 61.5 39.3 77.7 31 3.78 2 16 0 0 7 7
Feb 2021 28 64.3 38.5 77.4 32.8 0.57 0 19 0 0 5 2
Mar 2021 31 64.3 36.9 82.6 32.3 1.19 0 26 0 0 6 6
Apr 2021 30 69.1 40 84.5 35.2 0 0 14 0 0 0 0
May 2021 31 74.5 45.7 87.4 38.8 0 0 1 0 0 0 0
Jun 2021 30 78.2 52.3 101.4 42.2 0.02 0 0 3 1 0 0
Jul 2021 31 78.9 55.5 86.7 48.7 0.02 0 0 0 0 0 0
Aug 2021 31 80.1 55.5 96.7 49.2 0 0 0 2 0 0 0
Sep 2021 26 80.4 52.6 92.1 48.6 0 0 0 3 0 0 0
Total 269 - - - - 5.58 2 76 8 1 18 15
Average 29.9 72.4 46.3 - - 0.62 0.2 8.4 0.9 0.1 2 1.7
Maximum 31 80.4 55.5 101.4 - 3.78 2 26 3 1 7 7
Minimum 26 61.5 36.9 - 31 0 0 0 0 0 0 0

Climate Summary

Stanford Met Tower

Last Year | Showing 1/1/20 - 12/31/20
as of 9/27/21 3:14 AM PDT
Temperature (°F) Precip (in) Days
Month Days Avg Max Avg Min Max Max Min Min Total Daily Min Temp < 32 Daily Min Temp < 40 Daily Max Temp > 90 Daily Max Temp > 100 Daily Rain > 0.01 Daily Rain > 0.1
Jan 2020 31 60.2 38.4 84.2 32.1 0.94 0 21 0 0 5 1
Feb 2020 29 66.4 37.1 77.7 29.2 0 3 24 0 0 0 0
Mar 2020 31 63 41.7 78.5 33.1 1.63 0 10 0 0 10 5
Apr 2020 30 69.6 44.4 85.5 34.1 0.94 0 6 0 0 3 3
May 2020 31 77.2 48.2 96.7 37.8 0.21 0 1 4 0 2 1
Jun 2020 30 79.7 52.9 95.6 44.5 0 0 0 5 0 0 0
Jul 2020 31 80.3 54.1 93.1 47.9 0 0 0 1 0 0 0
Aug 2020 31 83.6 57.8 101.6 51 0.13 0 0 7 1 1 1
Sep 2020 30 82.5 54.8 107.5 50.1 0.02 0 0 5 2 1 0
Oct 2020 31 81.4 49 95.1 39.7 0 0 2 7 0 0 0
Nov 2020 30 65.9 38.1 80.1 29.5 0.44 5 17 0 0 4 2
Dec 2020 31 61.7 36.1 74.5 29.5 1.25 3 27 0 0 6 3
Total 366 - - - - 5.56 11 108 29 3 32 16
Average 30.5 72.6 46.1 - - 0.46 0.9 9 2.4 0.2 2.7 1.3
Maximum 31 83.6 57.8 107.5 - 1.63 5 27 7 2 10 5
Minimum 29 60.2 36.1 - 29.2 0 0 0 0 0 0 0

Climate Summary 2018

Stanford Met Tower

1/1/2018 - 12/31/2018 | Showing 1/1/18 - 12/31/18
as of 9/27/21 3:14 AM PDT
Temperature (°F) Precip (in) Days
Month Days Avg Max Avg Min Max Max Min Min Total Daily Min Temp < 32 Daily Min Temp < 40 Daily Max Temp > 90 Daily Max Temp > 100 Daily Rain > 0.01 Daily Rain > 0.1
Jan 2018 31 64.1 41.9 74 33.4 3.42 0 13 0 0 9 5
Feb 2018 28 69.4 36.9 83.9 26.6 0.33 6 17 0 0 2 1
Mar 2018 31 68.7 41.1 87 32.2 3.53 0 14 0 0 13 10
Apr 2018 30 73.2 43.4 85.7 36 1.38 0 6 0 0 7 3
May 2018 31 75.3 47.2 95.5 40.8 0 0 0 1 0 0 0
Jun 2018 30 84.1 49.6 101.9 42.5 0 0 0 8 1 0 0
Jul 2018 31 85.4 55.9 96.9 51.5 0.02 0 0 6 0 0 0
Aug 2018 31 84.4 53.5 94.5 47.9 0 0 0 7 0 0 0
Sep 2018 28 83.2 48.8 95.7 42.6 0 0 0 3 0 0 0
Oct 2018 31 79.9 46.7 88.1 39.6 0.05 0 1 0 0 2 0
Nov 2018 30 70.8 40.8 86.5 31.5 1.95 1 15 0 0 6 4
Dec 2018 31 61.7 39.4 67.1 31.1 1.44 1 20 0 0 7 5
Total 363 - - - - 12.12 8 86 25 1 46 28
Average 30.2 75 45.4 - - 1.01 0.7 7.2 2.1 0.1 3.8 2.3
Maximum 31 85.4 55.9 101.9 - 3.53 6 20 8 1 13 10
Minimum 28 61.7 36.9 - 26.6 0 0 0 0 0 0 0

Climate Summary 2017

Stanford Met Tower

1/1/2017 - 12/31/2017 | Showing 1/1/17 - 12/31/17
as of 9/27/21 3:14 AM PDT
Temperature (°F) Precip (in) Days
Month Days Avg Max Avg Min Max Max Min Min Total Daily Min Temp < 32 Daily Min Temp < 40 Daily Max Temp > 90 Daily Max Temp > 100 Daily Rain > 0.01 Daily Rain > 0.1
Jan 2017 31 59.2 38.6 67.9 27.2 10.05 5 17 0 0 17 13
Feb 2017 28 63.5 44.2 72.8 31.9 8.52 1 10 0 0 14 12
Mar 2017 31 71.7 43.2 84.4 33 2.7 0 7 0 0 8 7
Apr 2017 30 73.7 44.7 86.2 36.3 2.08 0 5 0 0 9 6
May 2017 31 79.6 48.3 96 41 0.01 0 0 6 0 0 0
Jun 2017 30 84.1 52.1 106.2 42.7 0.04 0 0 7 1 1 0
Jul 2017 31 88.3 53.9 103.6 47.6 0.01 0 0 8 3 0 0
Aug 2017 31 85 56.6 98.6 50.5 0 0 0 7 0 0 0
Sep 2017 30 87.4 54.8 110.8 43.7 0.06 0 0 10 2 1 0
Oct 2017 31 81.7 45.1 95.5 38.6 0.13 0 1 4 0 2 0
Nov 2017 30 68.5 44.8 75.4 35.9 2.67 0 6 0 0 8 4
Dec 2017 31 64.4 33.9 72.8 27.9 0.1 5 31 0 0 2 0
Total 365 - - - - 26.37 11 77 42 6 62 42
Average 30.4 75.6 46.7 - - 2.2 0.9 6.4 3.5 0.5 5.2 3.5
Maximum 31 88.3 56.6 110.8 - 10.05 5 31 10 3 17 13
Minimum 28 59.2 33.9 - 27.2 0 0 0 0 0 0 0